Varva — A8UP7 — position and weather

sailwx.info

Track history (hours):
 
Tides and Currents Weather Stations Pressure Air Temp Water Temp Dewpoint Dewpoint Depression Visibility Wind Speed Wind Dir Waves Ship Positions

Varva

Last reported at 2015-May-27 03:19 UTC. Time now 2015-May-29 04:08 UTC.
Position N 40°37' W 009°49'.

Length 224 m; draft 7.4 m.

Type: Cargo ship. MMSI: 636014536.

Date/timePositionNaut miles runAvg speedWind from/ knotsBaromVisibWave heightAir tempDewpointWater temp
2015-May-27 03:19N 40°37' W 009°49'34 9.0
2015-May-26 23:33N 40°03' W 009°48'29 9.6
2015-May-26 20:33N 39°34' W 009°51'10 9.7
2015-May-26 19:33N 39°24' W 009°51'10 9.8
2015-May-26 18:33N 39°15' W 009°51'10 9.5
2015-May-26 17:33N 39°05' W 009°51'10 9.7
2015-May-26 16:33N 38°55' W 009°51'10 9.8
2015-May-26 15:33N 38°46' W 009°52'10 9.7
2015-May-26 14:33N 38°36' W 009°49'1010.0
2015-May-26 13:33N 38°26' W 009°47'10 9.9
2015-May-26 12:33N 38°17' W 009°44'10 9.7
2015-May-26 11:33N 38°07' W 009°41'10 9.9
2015-May-26 10:33N 37°58' W 009°38'1010.1
2015-May-26 09:33N 37°48' W 009°35'1110.8
2015-May-26 08:33N 37°37' W 009°32'1110.9
2015-May-26 07:33N 37°27' W 009°29'1110.8
2015-May-26 06:33N 37°16' W 009°26'1110.9
2015-May-26 05:33N 37°05' W 009°23'1111.2
2015-May-26 04:33N 36°55' W 009°20'1111.2
2015-May-26 03:33N 36°46' W 009°11'1111.3
2015-May-26 02:33N 36°41' W 008°58'1111.4
2015-May-26 01:33N 36°38' W 008°45'1211.8
2015-May-26 00:33N 36°35' W 008°30'1111.3
2015-May-25 23:33N 36°31' W 008°17'1111.4
2015-May-25 22:33N 36°27' W 008°04'1111.3
2015-May-25 21:33N 36°24' W 007°51'1111.2
2015-May-25 20:33N 36°20' W 007°37'10311.4
2015-May-25 11:32N 35°59' W 005°32'10 9.9
2015-May-25 10:33N 36°05' W 005°23'3 2.8
2015-May-25 09:21N 36°09' W 005°23'0 0.1
2015-May-25 08:33N 36°09' W 005°23'0 0.0
2015-May-25 07:33N 36°09' W 005°23'0 0.2
2015-May-25 06:18N 36°09' W 005°23'0 0.1
2015-May-25 05:33N 36°09' W 005°23'0 0.0
2015-May-25 04:33N 36°09' W 005°23'0 0.1
2015-May-25 03:33N 36°09' W 005°23'0 0.1
2015-May-25 02:33N 36°09' W 005°23'0 0.0
2015-May-25 01:33N 36°09' W 005°23'0 0.0
2015-May-25 00:33N 36°09' W 005°23'0 0.1
2015-May-24 23:33N 36°09' W 005°23'0 0.0
2015-May-24 22:33N 36°09' W 005°23'0 0.0
2015-May-24 21:32N 36°09' W 005°23'0 0.0
2015-May-24 20:32N 36°09' W 005°23'0 0.0
2015-May-24 19:32N 36°09' W 005°23'0 0.1
2015-May-24 18:32N 36°09' W 005°23'0 0.0
2015-May-24 17:32N 36°09' W 005°23'0 0.1
2015-May-24 16:32N 36°09' W 005°23'0 0.0
2015-May-24 15:23N 36°09' W 005°23'0 0.0
2015-May-24 14:20N 36°09' W 005°23'0 0.0
2015-May-24 13:32N 36°09' W 005°23'0 0.0
2015-May-24 12:32N 36°09' W 005°23'0 0.0
2015-May-24 08:23N 36°09' W 005°23'0 0.0
2015-May-24 06:32N 36°09' W 005°23'0 0.0
2015-May-24 05:32N 36°09' W 005°23'0 0.0
2015-May-24 04:32N 36°09' W 005°23'0 0.0
2015-May-24 03:32N 36°09' W 005°23'0 0.0
2015-May-24 02:26N 36°09' W 005°23'0 0.1
2015-May-24 01:32N 36°09' W 005°23'0 0.1
2015-May-24 00:32N 36°09' W 005°23'0 0.0
2015-May-23 23:14N 36°09' W 005°23'0 0.0
2015-May-23 22:05N 36°09' W 005°23'0 0.0
2015-May-23 21:20N 36°09' W 005°23'0 0.0
2015-May-23 20:32N 36°09' W 005°23'0 0.0
2015-May-23 19:26N 36°09' W 005°23'0 0.1
2015-May-23 18:29N 36°09' W 005°23'0 0.1
2015-May-23 17:32N 36°09' W 005°23'0 0.0
2015-May-23 16:32N 36°09' W 005°23'0 0.0
2015-May-23 15:26N 36°09' W 005°23'0 0.0
2015-May-23 14:32N 36°09' W 005°23'0 0.1
2015-May-23 13:32N 36°09' W 005°23'0 0.0
2015-May-23 12:23N 36°09' W 005°23'0 0.0
2015-May-23 11:32N 36°09' W 005°23'0 0.0
2015-May-23 09:25N 36°09' W 005°23'0 0.0
2015-May-23 08:28N 36°09' W 005°23'0 0.0
2015-May-23 07:31N 36°09' W 005°23'0 0.0
2015-May-23 06:28N 36°09' W 005°23'0 0.0
2015-May-23 05:28N 36°09' W 005°23'0 0.0
2015-May-23 04:31N 36°09' W 005°23'0 0.0
2015-May-23 03:31N 36°09' W 005°23'0 0.0
2015-May-23 02:31N 36°09' W 005°23'0 0.1
2015-May-23 01:28N 36°09' W 005°23'0 0.1
2015-May-23 00:31N 36°09' W 005°23'1 1.4
2015-May-22 23:33N 36°07' W 005°23'3 3.0
2015-May-22 22:33N 36°05' W 005°20'4 4.3
2015-May-22 21:33N 36°03' W 005°15'3 2.8
2015-May-22 20:33N 36°04' W 005°12'1 1.3
2015-May-22 19:33N 36°05' W 005°11'1 1.1
2015-May-22 18:32N 36°06' W 005°10'1 0.4
2015-May-22 17:13N 36°06' W 005°10'106 9.6
2015-May-22 06:08N 36°20' W 002°59'610.3
2015-May-22 05:33N 36°21' W 002°52'1110.6
2015-May-22 04:32N 36°22' W 002°38'1010.5
2015-May-22 03:33N 36°24' W 002°26'1110.8
2015-May-22 02:32N 36°26' W 002°12'2310.7
2015-May-22 00:24N 36°30' W 001°44'51210.1
2015-May-19 21:32N 37°37' E 008°52'9 8.9
2015-May-19 20:33N 37°37' E 009°03'9 8.6
2015-May-19 19:33N 37°38' E 009°14'9 9.0
2015-May-19 18:33N 37°39' E 009°25'10 9.5
2015-May-19 17:33N 37°39' E 009°37'9 9.1
2015-May-19 16:33N 37°38' E 009°48'10 9.9
2015-May-19 15:32N 37°39' E 010°01'1010.1
2015-May-19 14:33N 37°39' E 010°14'1310.2
2015-May-19 13:14N 37°36' E 010°30'7 9.9
2015-May-19 12:33N 37°34' E 010°38'10 9.8
2015-May-19 11:33N 37°32' E 010°50'1310.3
2015-May-19 10:20N 37°29' E 011°06'18 9.9
2015-May-19 08:32N 37°21' E 011°26'1110.2
2015-May-19 07:29N 37°16' E 011°38'2310.0
2015-May-19 05:09N 37°05' E 012°03'7 9.9
2015-May-19 04:27N 37°02' E 012°11'9 9.6
2015-May-19 03:32N 36°59' E 012°21'18 9.1
2015-May-19 01:33N 36°53' E 012°43'9 9.3
2015-May-19 00:33N 36°50' E 012°54'10 9.0
2015-May-18 23:29N 36°48' E 013°06'9 9.2
2015-May-18 22:33N 36°46' E 013°16'9 9.4
2015-May-18 21:33N 36°43' E 013°27'10 9.6
2015-May-18 20:32N 36°40' E 013°39'10 9.8
2015-May-18 19:33N 36°37' E 013°50'10 9.9
2015-May-18 18:33N 36°34' E 014°02'10 9.9
2015-May-18 17:33N 36°31' E 014°13'10 9.8
2015-May-18 16:33N 36°28' E 014°25'10 9.8
2015-May-18 15:32N 36°24' E 014°37'9 9.6
2015-May-18 14:33N 36°23' E 014°48'264 9.8
2015-May-17 11:31N 35°07' E 019°60'14 9.9
2015-May-17 10:09N 35°03' E 020°16'16 9.6
2015-May-17 08:30N 34°59' E 020°34'9 9.9
2015-May-17 07:33N 34°56' E 020°45'1310.2
2015-May-17 06:17N 34°52' E 021°00'1010.2
2015-May-17 05:20N 34°49' E 021°12'1210.1
2015-May-17 04:11N 34°46' E 021°25'  
Track history (hours):
 
Tides and Currents Weather Stations Pressure Air Temp Water Temp Dewpoint Dewpoint Depression Visibility Wind Speed Wind Dir Waves Ship Positions

Varva

Last reported at 2015-May-27 03:19 UTC. Time now 2015-May-29 04:08 UTC.
Position N 40°37' W 009°49'.

Length 224 m; draft 7.4 m.

Type: Cargo ship. MMSI: 636014536.

Date/timePositionNaut miles runAvg speedWind from/ knotsBaromVisibWave heightAir tempDewpointWater temp
2015-May-27 03:19N 40°37' W 009°49'34 9.0
2015-May-26 23:33N 40°03' W 009°48'29 9.6
2015-May-26 20:33N 39°34' W 009°51'10 9.7
2015-May-26 19:33N 39°24' W 009°51'10 9.8
2015-May-26 18:33N 39°15' W 009°51'10 9.5
2015-May-26 17:33N 39°05' W 009°51'10 9.7
2015-May-26 16:33N 38°55' W 009°51'10 9.8
2015-May-26 15:33N 38°46' W 009°52'10 9.7
2015-May-26 14:33N 38°36' W 009°49'1010.0
2015-May-26 13:33N 38°26' W 009°47'10 9.9
2015-May-26 12:33N 38°17' W 009°44'10 9.7
2015-May-26 11:33N 38°07' W 009°41'10 9.9
2015-May-26 10:33N 37°58' W 009°38'1010.1
2015-May-26 09:33N 37°48' W 009°35'1110.8
2015-May-26 08:33N 37°37' W 009°32'1110.9
2015-May-26 07:33N 37°27' W 009°29'1110.8
2015-May-26 06:33N 37°16' W 009°26'1110.9
2015-May-26 05:33N 37°05' W 009°23'1111.2
2015-May-26 04:33N 36°55' W 009°20'1111.2
2015-May-26 03:33N 36°46' W 009°11'1111.3
2015-May-26 02:33N 36°41' W 008°58'1111.4
2015-May-26 01:33N 36°38' W 008°45'1211.8
2015-May-26 00:33N 36°35' W 008°30'1111.3
2015-May-25 23:33N 36°31' W 008°17'1111.4
2015-May-25 22:33N 36°27' W 008°04'1111.3
2015-May-25 21:33N 36°24' W 007°51'1111.2
2015-May-25 20:33N 36°20' W 007°37'10311.4
2015-May-25 11:32N 35°59' W 005°32'10 9.9
2015-May-25 10:33N 36°05' W 005°23'3 2.8
2015-May-25 09:21N 36°09' W 005°23'0 0.1
2015-May-25 08:33N 36°09' W 005°23'0 0.0
2015-May-25 07:33N 36°09' W 005°23'0 0.2
2015-May-25 06:18N 36°09' W 005°23'0 0.1
2015-May-25 05:33N 36°09' W 005°23'0 0.0
2015-May-25 04:33N 36°09' W 005°23'0 0.1
2015-May-25 03:33N 36°09' W 005°23'0 0.1
2015-May-25 02:33N 36°09' W 005°23'0 0.0
2015-May-25 01:33N 36°09' W 005°23'0 0.0
2015-May-25 00:33N 36°09' W 005°23'0 0.1
2015-May-24 23:33N 36°09' W 005°23'0 0.0
2015-May-24 22:33N 36°09' W 005°23'0 0.0
2015-May-24 21:32N 36°09' W 005°23'0 0.0
2015-May-24 20:32N 36°09' W 005°23'0 0.0
2015-May-24 19:32N 36°09' W 005°23'0 0.1
2015-May-24 18:32N 36°09' W 005°23'0 0.0
2015-May-24 17:32N 36°09' W 005°23'0 0.1
2015-May-24 16:32N 36°09' W 005°23'0 0.0
2015-May-24 15:23N 36°09' W 005°23'0 0.0
2015-May-24 14:20N 36°09' W 005°23'0 0.0
2015-May-24 13:32N 36°09' W 005°23'0 0.0
2015-May-24 12:32N 36°09' W 005°23'0 0.0
2015-May-24 08:23N 36°09' W 005°23'0 0.0
2015-May-24 06:32N 36°09' W 005°23'0 0.0
2015-May-24 05:32N 36°09' W 005°23'0 0.0
2015-May-24 04:32N 36°09' W 005°23'0 0.0
2015-May-24 03:32N 36°09' W 005°23'0 0.0
2015-May-24 02:26N 36°09' W 005°23'0 0.1
2015-May-24 01:32N 36°09' W 005°23'0 0.1
2015-May-24 00:32N 36°09' W 005°23'0 0.0
2015-May-23 23:14N 36°09' W 005°23'0 0.0
2015-May-23 22:05N 36°09' W 005°23'0 0.0
2015-May-23 21:20N 36°09' W 005°23'0 0.0
2015-May-23 20:32N 36°09' W 005°23'0 0.0
2015-May-23 19:26N 36°09' W 005°23'0 0.1
2015-May-23 18:29N 36°09' W 005°23'0 0.1
2015-May-23 17:32N 36°09' W 005°23'0 0.0
2015-May-23 16:32N 36°09' W 005°23'0 0.0
2015-May-23 15:26N 36°09' W 005°23'0 0.0
2015-May-23 14:32N 36°09' W 005°23'0 0.1
2015-May-23 13:32N 36°09' W 005°23'0 0.0
2015-May-23 12:23N 36°09' W 005°23'0 0.0
2015-May-23 11:32N 36°09' W 005°23'0 0.0
2015-May-23 09:25N 36°09' W 005°23'0 0.0
2015-May-23 08:28N 36°09' W 005°23'0 0.0
2015-May-23 07:31N 36°09' W 005°23'0 0.0
2015-May-23 06:28N 36°09' W 005°23'0 0.0
2015-May-23 05:28N 36°09' W 005°23'0 0.0
2015-May-23 04:31N 36°09' W 005°23'0 0.0
2015-May-23 03:31N 36°09' W 005°23'0 0.0
2015-May-23 02:31N 36°09' W 005°23'0 0.1
2015-May-23 01:28N 36°09' W 005°23'0 0.1
2015-May-23 00:31N 36°09' W 005°23'1 1.4
2015-May-22 23:33N 36°07' W 005°23'3 3.0
2015-May-22 22:33N 36°05' W 005°20'4 4.3
2015-May-22 21:33N 36°03' W 005°15'3 2.8
2015-May-22 20:33N 36°04' W 005°12'1 1.3
2015-May-22 19:33N 36°05' W 005°11'1 1.1
2015-May-22 18:32N 36°06' W 005°10'1 0.4
2015-May-22 17:13N 36°06' W 005°10'106 9.6
2015-May-22 06:08N 36°20' W 002°59'610.3
2015-May-22 05:33N 36°21' W 002°52'1110.6
2015-May-22 04:32N 36°22' W 002°38'1010.5
2015-May-22 03:33N 36°24' W 002°26'1110.8
2015-May-22 02:32N 36°26' W 002°12'2310.7
2015-May-22 00:24N 36°30' W 001°44'51210.1
2015-May-19 21:32N 37°37' E 008°52'9 8.9
2015-May-19 20:33N 37°37' E 009°03'9 8.6
2015-May-19 19:33N 37°38' E 009°14'9 9.0
2015-May-19 18:33N 37°39' E 009°25'10 9.5
2015-May-19 17:33N 37°39' E 009°37'9 9.1
2015-May-19 16:33N 37°38' E 009°48'10 9.9
2015-May-19 15:32N 37°39' E 010°01'1010.1
2015-May-19 14:33N 37°39' E 010°14'1310.2
2015-May-19 13:14N 37°36' E 010°30'7 9.9
2015-May-19 12:33N 37°34' E 010°38'10 9.8
2015-May-19 11:33N 37°32' E 010°50'1310.3
2015-May-19 10:20N 37°29' E 011°06'18 9.9
2015-May-19 08:32N 37°21' E 011°26'1110.2
2015-May-19 07:29N 37°16' E 011°38'2310.0
2015-May-19 05:09N 37°05' E 012°03'7 9.9
2015-May-19 04:27N 37°02' E 012°11'9 9.6
2015-May-19 03:32N 36°59' E 012°21'18 9.1
2015-May-19 01:33N 36°53' E 012°43'9 9.3
2015-May-19 00:33N 36°50' E 012°54'10 9.0
2015-May-18 23:29N 36°48' E 013°06'9 9.2
2015-May-18 22:33N 36°46' E 013°16'9 9.4
2015-May-18 21:33N 36°43' E 013°27'10 9.6
2015-May-18 20:32N 36°40' E 013°39'10 9.8
2015-May-18 19:33N 36°37' E 013°50'10 9.9
2015-May-18 18:33N 36°34' E 014°02'10 9.9
2015-May-18 17:33N 36°31' E 014°13'10 9.8
2015-May-18 16:33N 36°28' E 014°25'10 9.8
2015-May-18 15:32N 36°24' E 014°37'9 9.6
2015-May-18 14:33N 36°23' E 014°48'264 9.8
2015-May-17 11:31N 35°07' E 019°60'14 9.9
2015-May-17 10:09N 35°03' E 020°16'16 9.6
2015-May-17 08:30N 34°59' E 020°34'9 9.9
2015-May-17 07:33N 34°56' E 020°45'1310.2
2015-May-17 06:17N 34°52' E 021°00'1010.2
2015-May-17 05:20N 34°49' E 021°12'1210.1
2015-May-17 04:11N 34°46' E 021°25'  

Dump ship's entire track history